createdAt,value
2019-04-21T00:00:14.885Z,10.60
2019-04-21T00:01:12.639Z,10.20
2019-04-21T00:02:14.841Z,10.10
2019-04-21T00:03:19.385Z,9.70
2019-04-21T00:04:24.567Z,10.30
2019-04-21T00:05:47.358Z,10.00
2019-04-21T00:06:31.484Z,10.80
2019-04-21T00:07:31.365Z,9.80
2019-04-21T00:09:32.640Z,10.60
2019-04-21T00:10:35.675Z,9.80
2019-04-21T00:11:34.294Z,9.90
2019-04-21T00:12:31.437Z,10.10
2019-04-21T00:13:27.949Z,10.60
2019-04-21T00:14:22.002Z,9.50
2019-04-21T00:15:24.354Z,9.50
2019-04-21T00:16:17.165Z,10.00
2019-04-21T00:17:17.539Z,9.20
2019-04-21T00:18:14.370Z,10.10
2019-04-21T00:19:19.835Z,10.20
2019-04-21T00:20:26.117Z,9.70
2019-04-21T00:21:24.412Z,10.40
2019-04-21T00:22:26.886Z,9.70
2019-04-21T00:23:36.883Z,9.60
2019-04-21T00:24:28.902Z,9.20
2019-04-21T00:25:32.179Z,9.30
2019-04-21T00:26:33.516Z,10.00
2019-04-21T00:27:28.049Z,9.90
2019-04-21T00:28:47.469Z,10.80
2019-04-21T00:29:37.999Z,10.40
2019-04-21T00:30:34.170Z,10.40
2019-04-21T00:31:36.623Z,10.20
2019-04-21T00:32:28.286Z,10.80
2019-04-21T00:33:21.581Z,10.60
2019-04-21T00:34:15.766Z,10.90
2019-04-21T00:35:19.617Z,10.80
2019-04-21T00:36:22.666Z,10.90
2019-04-21T00:37:27.666Z,11.10
2019-04-21T00:38:40.348Z,11.50
2019-04-21T00:39:45.052Z,11.10
2019-04-21T00:40:41.417Z,11.60
2019-04-21T00:41:36.724Z,10.90
2019-04-21T00:42:34.434Z,10.80
2019-04-21T00:43:33.261Z,11.90
2019-04-21T00:44:26.954Z,11.60
2019-04-21T00:45:31.486Z,11.10
2019-04-21T00:46:31.198Z,11.30
2019-04-21T00:47:38.825Z,11.60
2019-04-21T00:48:45.670Z,10.90
2019-04-21T00:49:34.322Z,9.90
2019-04-21T00:50:53.263Z,10.20
2019-04-21T00:51:46.654Z,10.10
2019-04-21T00:52:51.262Z,9.20
2019-04-21T00:53:48.428Z,10.10
2019-04-21T00:54:49.826Z,9.30
2019-04-21T00:55:45.563Z,10.20
2019-04-21T00:56:42.489Z,9.70
2019-04-21T00:57:45.499Z,9.70
2019-04-21T00:58:40.980Z,9.10
2019-04-21T00:59:48.404Z,10.10
2019-04-21T01:00:44.506Z,9.20
2019-04-21T01:01:38.025Z,9.10
2019-04-21T01:02:45.511Z,9.50
2019-04-21T01:03:45.895Z,9.80
2019-04-21T01:04:43.325Z,10.70
2019-04-21T01:05:49.799Z,10.10
2019-04-21T01:06:43.720Z,10.50
2019-04-21T01:07:42.372Z,10.60
2019-04-21T01:08:41.379Z,10.00
2019-04-21T01:09:38.529Z,10.30
2019-04-21T01:10:34.915Z,11.20
2019-04-21T01:11:44.848Z,11.10
2019-04-21T01:12:41.577Z,10.80
2019-04-21T01:13:45.457Z,11.60
2019-04-21T01:14:51.964Z,13.20
2019-04-21T01:15:49.136Z,12.80
2019-04-21T01:16:47.351Z,12.50
2019-04-21T01:17:50.473Z,12.00
2019-04-21T01:18:45.976Z,10.90
2019-04-21T01:19:42.241Z,10.40
2019-04-21T01:20:22.526Z,11.00
2019-04-21T01:21:22.666Z,10.80
2019-04-21T01:22:22.812Z,11.20
2019-04-21T01:23:23.402Z,11.40
2019-04-21T01:24:30.761Z,11.20
2019-04-21T01:25:33.111Z,11.50
2019-04-21T01:26:36.258Z,10.90
2019-04-21T01:27:48.492Z,10.90
2019-04-21T01:28:39.958Z,11.20
2019-04-21T01:29:45.906Z,10.60
2019-04-21T01:30:50.278Z,9.60
2019-04-21T01:31:42.300Z,9.80
2019-04-21T01:32:51.550Z,9.20
2019-04-21T01:33:44.999Z,9.70
2019-04-21T01:34:45.620Z,9.90
2019-04-21T01:35:44.124Z,9.70
2019-04-21T01:36:45.797Z,11.10
2019-04-21T01:37:51.621Z,10.90
2019-04-21T01:38:52.416Z,10.90
2019-04-21T01:39:51.352Z,10.80
2019-04-21T01:40:44.961Z,11.10
2019-04-21T01:41:45.038Z,10.90
2019-04-21T01:42:48.061Z,11.70
2019-04-21T01:43:45.793Z,10.10
2019-04-21T01:44:48.510Z,10.30
2019-04-21T01:45:37.027Z,11.00
2019-04-21T01:46:40.852Z,11.90
2019-04-21T01:47:46.178Z,11.60
2019-04-21T01:48:45.944Z,12.00
2019-04-21T01:49:36.925Z,11.80
2019-04-21T01:50:47.110Z,10.70
2019-04-21T01:51:59.716Z,10.80
2019-04-21T01:52:49.935Z,10.80
2019-04-21T01:53:48.585Z,10.70
2019-04-21T01:54:53.469Z,10.10
2019-04-21T01:55:52.811Z,10.20
2019-04-21T01:56:44.518Z,10.30
2019-04-21T01:57:42.517Z,10.30
2019-04-21T01:58:40.475Z,10.70
2019-04-21T01:59:44.812Z,10.50
2019-04-21T02:00:45.132Z,11.20
2019-04-21T02:01:45.828Z,12.30
2019-04-21T02:02:54.558Z,12.60
2019-04-21T02:03:53.185Z,12.90
2019-04-21T02:04:57.965Z,12.20
2019-04-21T02:05:55.263Z,13.70
2019-04-21T02:06:50.413Z,14.20
2019-04-21T02:07:53.447Z,12.60
2019-04-21T02:08:49.375Z,12.50
2019-04-21T02:09:55.403Z,13.40
2019-04-21T02:10:54.685Z,12.60
2019-04-21T02:11:56.160Z,12.80
2019-04-21T02:12:50.950Z,13.00
2019-04-21T02:13:57.612Z,13.60
2019-04-21T02:15:03.300Z,12.70
2019-04-21T02:15:59.325Z,11.90
2019-04-21T02:16:54.081Z,11.80
2019-04-21T02:17:54.116Z,11.20
2019-04-21T02:18:53.090Z,11.20
2019-04-21T02:19:46.217Z,10.40
2019-04-21T02:20:41.874Z,10.90
2019-04-21T02:21:43.473Z,9.80
2019-04-21T02:23:10.235Z,10.20
2019-04-21T02:24:00.527Z,10.70
2019-04-21T02:24:56.832Z,10.20
2019-04-21T02:26:54.281Z,11.80
2019-04-21T02:27:59.505Z,11.80
2019-04-21T02:29:03.255Z,11.00
2019-04-21T02:29:55.206Z,11.90
2019-04-21T02:32:10.665Z,10.60
2019-04-21T02:33:13.711Z,10.70
2019-04-21T02:34:05.850Z,10.70
2019-04-21T02:37:21.514Z,10.50
2019-04-21T02:39:16.665Z,9.80
2019-04-21T02:40:57.300Z,10.30
2019-04-21T02:42:01.723Z,9.40
2019-04-21T02:45:09.307Z,10.40
2019-04-21T02:46:15.030Z,10.20
2019-04-21T02:46:55.132Z,9.50
2019-04-21T02:50:09.529Z,9.90
2019-04-21T02:52:14.268Z,9.20
2019-04-21T02:53:13.938Z,10.00
2019-04-21T02:55:11.759Z,9.10
2019-04-21T02:56:09.663Z,9.90
2019-04-21T02:57:11.288Z,11.60
2019-04-21T02:58:06.130Z,10.60
2019-04-21T02:59:15.073Z,11.30
2019-04-21T03:00:15.977Z,11.80
2019-04-21T03:01:12.453Z,11.00
2019-04-21T03:02:17.071Z,12.40
2019-04-21T03:03:15.975Z,11.10
2019-04-21T03:04:10.575Z,10.70
2019-04-21T03:05:17.038Z,11.80
2019-04-21T03:07:14.896Z,11.30
2019-04-21T03:08:14.349Z,10.70
2019-04-21T03:09:09.055Z,10.60
2019-04-21T03:10:02.330Z,11.50
2019-04-21T03:11:10.994Z,10.70
2019-04-21T03:13:13.819Z,11.60
2019-04-21T03:15:31.598Z,10.70
2019-04-21T03:16:17.123Z,11.50
2019-04-21T03:19:20.035Z,11.60
2019-04-21T03:20:07.150Z,11.40
2019-04-21T03:21:16.456Z,11.80
2019-04-21T03:22:13.000Z,11.60
2019-04-21T03:24:29.492Z,10.90
2019-04-21T03:26:19.416Z,11.50
2019-04-21T03:27:20.594Z,11.60
2019-04-21T03:28:14.102Z,11.10
2019-04-21T03:29:11.848Z,10.60
2019-04-21T03:30:26.278Z,11.40
2019-04-21T03:35:44.054Z,10.30
2019-04-21T03:36:43.886Z,10.80
2019-04-21T03:37:19.353Z,10.00
2019-04-21T03:38:19.152Z,9.90
2019-04-21T03:39:07.724Z,10.90
2019-04-21T03:41:15.938Z,9.90
2019-04-21T03:42:27.050Z,10.70
2019-04-21T03:43:12.545Z,10.10
2019-04-21T03:44:14.494Z,10.90
2019-04-21T03:45:23.746Z,9.80
2019-04-21T03:46:16.435Z,10.70
2019-04-21T03:47:44.901Z,9.60
2019-04-21T03:48:20.797Z,9.80
2019-04-21T03:49:20.642Z,10.90
2019-04-21T03:50:12.821Z,10.20
2019-04-21T03:51:25.696Z,10.40
2019-04-21T03:55:41.471Z,10.30
2019-04-21T03:56:41.729Z,10.00
2019-04-21T03:57:17.818Z,11.00
2019-04-21T03:59:12.206Z,11.10
2019-04-21T04:00:34.101Z,11.20
2019-04-21T04:01:16.330Z,10.20
2019-04-21T04:03:34.202Z,10.10
2019-04-21T04:05:21.839Z,10.90
2019-04-21T04:06:20.654Z,9.40
2019-04-21T04:07:25.015Z,11.00
2019-04-21T04:10:24.525Z,10.50
2019-04-21T04:12:14.339Z,10.40
2019-04-21T04:13:14.405Z,9.50
2019-04-21T04:15:20.531Z,10.50
2019-04-21T04:18:33.899Z,10.10
2019-04-21T04:19:22.855Z,10.90
2019-04-21T04:22:19.374Z,10.90
2019-04-21T04:23:20.692Z,9.50
2019-04-21T04:25:20.875Z,10.30
2019-04-21T04:26:26.058Z,9.10
2019-04-21T04:28:19.467Z,9.50
2019-04-21T04:29:19.234Z,10.80
2019-04-21T04:32:25.166Z,11.10
2019-04-21T04:33:28.230Z,9.90
2019-04-21T04:34:40.427Z,9.90
2019-04-21T04:35:22.280Z,10.40
2019-04-21T04:36:40.457Z,10.00
2019-04-21T04:37:40.557Z,9.90
2019-04-21T04:38:32.646Z,10.80
2019-04-21T04:39:36.302Z,10.40
2019-04-21T04:41:26.609Z,11.00
2019-04-21T04:42:29.964Z,10.10
2019-04-21T04:46:35.285Z,10.80
2019-04-21T04:47:29.457Z,10.90
2019-04-21T04:48:23.580Z,10.80
2019-04-21T04:49:38.639Z,11.00
2019-04-21T04:50:35.156Z,10.00
2019-04-21T04:51:39.936Z,10.40
2019-04-21T04:54:40.067Z,11.20
2019-04-21T04:55:31.635Z,11.00
2019-04-21T04:56:31.483Z,11.90
2019-04-21T04:57:49.037Z,10.10
2019-04-21T04:58:29.212Z,10.60
2019-04-21T04:59:38.632Z,10.80
2019-04-21T05:03:40.146Z,10.40
2019-04-21T05:04:30.280Z,11.40
2019-04-21T05:05:43.988Z,11.40
2019-04-21T05:08:45.807Z,11.30
2019-04-21T05:09:23.505Z,11.30
2019-04-21T05:12:25.078Z,10.70
2019-04-21T05:13:26.174Z,11.70
2019-04-21T05:14:23.115Z,12.30
2019-04-21T05:15:19.854Z,11.20
2019-04-21T05:16:44.659Z,12.00
2019-04-21T05:17:28.689Z,12.20
2019-04-21T05:18:24.403Z,13.20
2019-04-21T05:19:21.170Z,12.00
2019-04-21T05:20:23.350Z,13.30
2019-04-21T05:21:34.402Z,13.30
2019-04-21T05:22:21.717Z,14.10
2019-04-21T05:23:19.590Z,12.90
2019-04-21T05:24:19.742Z,13.10
2019-04-21T05:26:13.552Z,14.20
2019-04-21T05:27:12.686Z,14.90
2019-04-21T05:28:12.491Z,14.70
2019-04-21T05:29:11.126Z,14.40
2019-04-21T05:30:30.690Z,14.80
2019-04-21T05:31:27.531Z,14.60
2019-04-21T05:32:17.267Z,15.40
2019-04-21T05:33:24.474Z,16.00
2019-04-21T05:34:22.123Z,15.70
2019-04-21T05:35:20.085Z,16.80
2019-04-21T05:36:18.803Z,16.70
2019-04-21T05:37:20.231Z,16.40
2019-04-21T05:38:16.785Z,16.00
2019-04-21T05:39:21.539Z,14.70
2019-04-21T05:40:15.865Z,14.30
2019-04-21T05:41:10.043Z,14.30
2019-04-21T05:42:08.808Z,13.20
2019-04-21T05:43:21.609Z,13.60
2019-04-21T05:44:33.303Z,14.20
2019-04-21T05:45:24.202Z,14.00
2019-04-21T05:46:26.130Z,13.20
2019-04-21T05:47:26.292Z,13.50
2019-04-21T05:49:22.303Z,15.10
2019-04-21T05:50:20.468Z,13.00
2019-04-21T05:51:20.261Z,15.70
2019-04-21T05:52:21.357Z,15.10
2019-04-21T05:53:31.292Z,14.00
2019-04-21T05:54:29.686Z,12.90
2019-04-21T05:55:26.163Z,13.50
2019-04-21T05:56:25.653Z,12.50
2019-04-21T05:57:23.893Z,12.30
2019-04-21T05:58:27.261Z,13.00
2019-04-21T05:59:20.299Z,12.10
2019-04-21T06:00:39.111Z,12.80
2019-04-21T06:01:46.719Z,13.00
2019-04-21T06:03:30.732Z,11.90
2019-04-21T06:04:40.297Z,11.50
2019-04-21T06:06:33.683Z,12.90
2019-04-21T06:07:31.338Z,11.90
2019-04-21T06:08:27.153Z,13.80
2019-04-21T06:09:27.443Z,14.80
2019-04-21T06:10:32.365Z,14.70
2019-04-21T06:11:30.547Z,13.10
2019-04-21T06:12:28.421Z,14.30
2019-04-21T06:13:38.747Z,14.30
2019-04-21T06:14:33.468Z,13.50
2019-04-21T06:15:30.225Z,13.20
2019-04-21T06:16:36.456Z,12.80
2019-04-21T06:17:35.086Z,11.80
2019-04-21T06:18:34.609Z,12.40
2019-04-21T06:19:41.353Z,12.00
2019-04-21T06:20:28.798Z,10.80
2019-04-21T06:21:26.344Z,11.40
2019-04-21T06:22:23.922Z,11.10
2019-04-21T06:23:30.488Z,10.60
2019-04-21T06:24:40.383Z,10.30
2019-04-21T06:25:55.368Z,10.40
2019-04-21T06:26:52.069Z,10.40
2019-04-21T06:28:38.071Z,10.30
2019-04-21T06:29:29.787Z,11.30
2019-04-21T06:30:33.193Z,12.40
2019-04-21T06:32:02.434Z,12.60
2019-04-21T06:33:39.497Z,12.40
2019-04-21T06:34:43.574Z,12.90
2019-04-21T06:35:39.736Z,12.20
2019-04-21T06:36:39.596Z,13.10
2019-04-21T06:37:43.125Z,13.00
2019-04-21T06:38:46.127Z,13.00
2019-04-21T06:39:31.840Z,12.90
2019-04-21T06:40:38.958Z,13.30
2019-04-21T06:42:32.658Z,12.30
2019-04-21T06:43:35.678Z,13.60
2019-04-21T06:44:33.096Z,14.30
2019-04-21T06:45:34.939Z,14.50
2019-04-21T06:46:35.375Z,14.40
2019-04-21T06:48:38.972Z,13.10
2019-04-21T06:49:30.270Z,12.50
2019-04-21T06:50:41.353Z,11.50
2019-04-21T06:51:32.347Z,11.30
2019-04-21T06:52:46.575Z,11.30
2019-04-21T06:53:39.728Z,11.30
2019-04-21T06:54:35.669Z,10.70
2019-04-21T06:55:27.893Z,10.30
2019-04-21T06:56:51.593Z,11.10
2019-04-21T06:57:34.905Z,11.00
2019-04-21T06:58:37.021Z,10.40
2019-04-21T06:59:34.110Z,10.50
2019-04-21T07:00:31.569Z,9.90
2019-04-21T07:01:39.018Z,10.90
2019-04-21T07:03:00.067Z,10.80
2019-04-21T07:03:34.597Z,10.50
2019-04-21T07:04:36.808Z,10.60
2019-04-21T07:05:42.650Z,10.30
2019-04-21T07:06:44.102Z,11.10
2019-04-21T07:07:40.491Z,10.60
2019-04-21T07:09:41.357Z,10.00
2019-04-21T07:10:31.867Z,10.20
2019-04-21T07:11:31.806Z,9.80
2019-04-21T07:12:35.472Z,8.90
2019-04-21T07:13:31.211Z,9.10
2019-04-21T07:14:31.976Z,8.70
2019-04-21T07:15:39.196Z,9.00
2019-04-21T07:16:41.523Z,8.90
2019-04-21T07:17:35.724Z,8.70
2019-04-21T07:18:47.444Z,9.30
2019-04-21T07:19:41.254Z,8.10
2019-04-21T07:20:36.593Z,8.40
2019-04-21T07:21:43.014Z,9.10
2019-04-21T07:23:38.687Z,8.40
2019-04-21T07:24:41.785Z,8.10
2019-04-21T07:25:39.173Z,7.20
2019-04-21T07:26:36.912Z,8.00
2019-04-21T07:27:43.038Z,7.60
2019-04-21T07:28:45.629Z,8.00
2019-04-21T07:29:39.453Z,7.80
2019-04-21T07:30:43.630Z,8.10
2019-04-21T07:31:47.232Z,8.40
2019-04-21T07:32:40.809Z,7.70
2019-04-21T07:34:38.529Z,8.60
2019-04-21T07:35:38.039Z,8.10
2019-04-21T07:36:48.050Z,8.20
2019-04-21T07:37:41.442Z,9.90
2019-04-21T07:38:41.274Z,8.00
2019-04-21T07:39:34.044Z,8.20
2019-04-21T07:40:33.744Z,7.60
2019-04-21T07:41:33.960Z,7.70
2019-04-21T07:42:32.567Z,7.40
2019-04-21T07:43:35.560Z,7.60
2019-04-21T07:44:35.046Z,7.50
2019-04-21T07:45:35.099Z,8.20
2019-04-21T07:46:30.105Z,8.00
2019-04-21T07:47:44.567Z,8.20
2019-04-21T07:48:37.531Z,8.70
2019-04-21T07:49:40.053Z,8.30
2019-04-21T07:50:38.583Z,7.70
2019-04-21T07:51:47.733Z,8.40
2019-04-21T07:52:39.585Z,7.60
2019-04-21T07:53:49.409Z,7.50
2019-04-21T07:54:54.078Z,8.30
2019-04-21T07:56:28.309Z,7.50
2019-04-21T07:57:37.691Z,7.60
2019-04-21T07:58:45.569Z,7.60
2019-04-21T07:59:48.472Z,7.70
2019-04-21T08:00:51.218Z,8.10
2019-04-21T08:01:45.327Z,7.60
2019-04-21T08:02:46.301Z,8.20
2019-04-21T08:04:24.811Z,7.90
2019-04-21T08:04:52.674Z,8.00
2019-04-21T08:05:51.064Z,7.80
2019-04-21T08:06:43.771Z,8.10
2019-04-21T08:07:58.018Z,7.90
2019-04-21T08:08:41.082Z,7.50
2019-04-21T08:09:41.044Z,7.50
2019-04-21T08:10:37.772Z,7.50
2019-04-21T08:11:36.755Z,7.90
2019-04-21T08:12:36.243Z,7.40
2019-04-21T08:14:43.567Z,7.70
2019-04-21T08:15:44.122Z,30.00
2019-04-21T08:16:46.131Z,7.50
2019-04-21T08:17:42.600Z,7.70
2019-04-21T08:18:46.768Z,7.40
2019-04-21T08:19:47.719Z,7.70
2019-04-21T08:20:46.201Z,7.00
2019-04-21T08:21:52.982Z,8.00
2019-04-21T08:22:47.921Z,7.20
2019-04-21T08:23:43.382Z,7.10
2019-04-21T08:24:42.384Z,8.00
2019-04-21T08:25:54.873Z,7.60
2019-04-21T08:26:47.036Z,7.90
2019-04-21T08:27:47.893Z,7.40
2019-04-21T08:28:49.500Z,7.50
2019-04-21T08:29:46.046Z,8.00
2019-04-21T08:30:43.005Z,8.10
2019-04-21T08:32:54.009Z,7.10
2019-04-21T08:34:55.826Z,7.40
2019-04-21T08:36:05.971Z,7.40
2019-04-21T08:36:47.710Z,7.50
2019-04-21T08:37:43.191Z,7.60
2019-04-21T08:38:49.569Z,7.50
2019-04-21T08:39:59.713Z,7.50
2019-04-21T08:41:46.887Z,7.40
2019-04-21T08:42:49.105Z,7.00
2019-04-21T08:43:44.583Z,6.90
2019-04-21T08:44:49.351Z,6.60
2019-04-21T08:45:49.390Z,6.70
2019-04-21T08:46:55.363Z,6.60
2019-04-21T08:47:48.622Z,7.30
2019-04-21T08:48:52.755Z,6.80
2019-04-21T08:49:49.057Z,7.30
2019-04-21T08:51:02.033Z,7.50
2019-04-21T08:51:53.970Z,6.70
2019-04-21T08:52:56.202Z,7.10
2019-04-21T08:54:47.081Z,7.40
2019-04-21T08:55:58.934Z,6.90
2019-04-21T08:56:49.594Z,12.50
2019-04-21T08:58:02.411Z,6.80
2019-04-21T08:58:52.534Z,6.80
2019-04-21T08:59:51.839Z,7.20
2019-04-21T09:00:55.044Z,6.40
2019-04-21T09:01:48.883Z,6.30
2019-04-21T09:02:47.588Z,6.40
2019-04-21T09:03:52.102Z,6.70
2019-04-21T09:04:54.167Z,6.90
2019-04-21T09:05:52.589Z,6.90
2019-04-21T09:06:58.907Z,6.60
2019-04-21T09:07:55.284Z,7.10
2019-04-21T09:08:51.999Z,6.90
2019-04-21T09:09:54.332Z,6.80
2019-04-21T09:10:52.899Z,6.20
2019-04-21T09:11:53.854Z,6.70
2019-04-21T09:12:46.762Z,7.20
2019-04-21T09:13:48.927Z,6.30
2019-04-21T09:14:50.894Z,6.00
2019-04-21T09:15:47.415Z,6.10
2019-04-21T09:16:47.609Z,5.80
2019-04-21T09:17:44.663Z,6.40
2019-04-21T09:18:48.772Z,5.70
2019-04-21T09:20:52.610Z,5.40
2019-04-21T09:21:57.486Z,5.60
2019-04-21T09:22:52.582Z,5.90
2019-04-21T09:23:52.370Z,6.10
2019-04-21T09:24:53.572Z,6.40
2019-04-21T09:25:55.000Z,5.80
2019-04-21T09:26:52.710Z,5.70
2019-04-21T09:27:46.767Z,5.80
2019-04-21T09:29:39.392Z,6.10
2019-04-21T09:30:43.962Z,5.80
2019-04-21T09:31:39.978Z,5.40
2019-04-21T09:32:36.668Z,6.00
2019-04-21T09:33:42.487Z,5.70
2019-04-21T09:34:40.456Z,5.00
2019-04-21T09:35:35.883Z,5.30
2019-04-21T09:36:43.098Z,5.40
2019-04-21T09:37:45.673Z,5.00
2019-04-21T09:38:39.881Z,5.10
2019-04-21T09:39:40.969Z,4.90
2019-04-21T09:40:41.762Z,5.10
2019-04-21T09:41:39.067Z,5.10
2019-04-21T09:42:44.367Z,5.10
2019-04-21T09:43:43.463Z,4.90
2019-04-21T09:44:40.451Z,5.10
2019-04-21T09:45:37.735Z,5.70
2019-04-21T09:46:44.400Z,4.70
2019-04-21T09:47:45.067Z,5.00
2019-04-21T09:49:39.509Z,5.10
2019-04-21T09:50:39.561Z,4.90
2019-04-21T09:51:37.987Z,5.30
2019-04-21T09:52:45.174Z,4.60
2019-04-21T09:53:41.393Z,5.10
2019-04-21T09:54:48.226Z,5.30
2019-04-21T09:55:46.545Z,4.90
2019-04-21T09:56:47.266Z,4.80
2019-04-21T09:57:47.729Z,5.00
2019-04-21T09:58:44.618Z,4.90
2019-04-21T09:59:42.369Z,4.50
2019-04-21T10:00:51.273Z,5.20
2019-04-21T10:01:55.858Z,5.00
2019-04-21T10:02:48.239Z,4.80
2019-04-21T10:03:43.459Z,4.60
2019-04-21T10:04:40.185Z,4.70
2019-04-21T10:05:40.159Z,4.50
2019-04-21T10:06:40.312Z,4.90
2019-04-21T10:07:42.374Z,4.90
2019-04-21T10:08:40.624Z,5.60
2019-04-21T10:09:40.777Z,8.20
2019-04-21T10:10:42.380Z,5.30
2019-04-21T10:11:41.690Z,5.80
2019-04-21T10:12:41.244Z,5.50
2019-04-21T10:13:41.965Z,5.10
2019-04-21T10:14:41.555Z,4.70
2019-04-21T10:15:41.941Z,4.70
2019-04-21T10:16:42.878Z,4.80
2019-04-21T10:17:42.023Z,4.80
2019-04-21T10:18:42.180Z,6.00
2019-04-21T10:19:42.336Z,4.80
2019-04-21T10:20:42.823Z,5.00
2019-04-21T10:21:42.648Z,5.30
2019-04-21T10:22:42.804Z,4.90
2019-04-21T10:23:43.809Z,4.50
2019-04-21T10:24:44.504Z,5.00
2019-04-21T10:25:43.267Z,4.30
2019-04-21T10:26:43.423Z,4.60
2019-04-21T10:27:43.581Z,4.20
2019-04-21T10:28:43.736Z,4.40
2019-04-21T10:29:45.328Z,4.80
2019-04-21T10:30:44.776Z,4.50
2019-04-21T10:31:44.974Z,4.70
2019-04-21T10:32:44.356Z,4.50
2019-04-21T10:33:44.513Z,4.80
2019-04-21T10:34:45.256Z,3.90
2019-04-21T10:35:44.828Z,4.60
2019-04-21T10:36:44.983Z,4.40
2019-04-21T10:37:58.384Z,4.50
2019-04-21T10:38:50.374Z,4.50
2019-04-21T10:39:45.490Z,4.90
2019-04-21T10:40:45.609Z,4.40
2019-04-21T10:41:45.894Z,4.20
2019-04-21T10:42:46.042Z,4.30
2019-04-21T10:43:47.124Z,4.80
2019-04-21T10:44:47.219Z,4.50
2019-04-21T10:45:46.557Z,5.10
2019-04-21T10:46:48.422Z,4.80
2019-04-21T10:47:47.202Z,4.90
2019-04-21T10:48:46.860Z,4.40
2019-04-21T10:49:47.026Z,4.90
2019-04-21T10:50:47.341Z,5.00
2019-04-21T10:51:47.296Z,5.10
2019-04-21T10:52:47.445Z,4.80
2019-04-21T10:53:50.819Z,4.70
2019-04-21T10:55:06.824Z,5.30
2019-04-21T10:56:00.484Z,4.80
2019-04-21T10:56:49.211Z,4.50
2019-04-21T10:57:48.398Z,4.80
2019-04-21T10:58:48.399Z,4.90
2019-04-21T10:59:51.058Z,4.40
2019-04-21T11:00:48.705Z,4.40
2019-04-21T11:01:49.203Z,4.30
2019-04-21T11:02:49.011Z,4.90
2019-04-21T11:03:49.167Z,4.50
2019-04-21T11:04:49.323Z,5.00
2019-04-21T11:05:50.505Z,4.80
2019-04-21T11:06:50.592Z,4.70
2019-04-21T11:08:01.123Z,5.10
2019-04-21T11:08:54.052Z,5.10
2019-04-21T11:09:50.104Z,4.70
2019-04-21T11:10:50.262Z,4.70
2019-04-21T11:11:52.073Z,4.80
2019-04-21T11:12:50.852Z,4.50
2019-04-21T11:13:50.764Z,4.70
2019-04-21T11:14:51.485Z,4.20
2019-04-21T11:15:51.047Z,5.00
2019-04-21T11:16:52.943Z,4.20
2019-04-21T11:17:52.325Z,4.50
2019-04-21T11:18:51.796Z,4.40
2019-04-21T11:19:52.652Z,3.80
2019-04-21T11:20:53.093Z,4.10
2019-04-21T11:21:52.569Z,4.20
2019-04-21T11:22:53.558Z,4.40
2019-04-21T11:23:52.312Z,4.40
2019-04-21T11:24:53.332Z,3.80
2019-04-21T11:25:53.833Z,4.30
2019-04-21T11:26:53.802Z,3.80
2019-04-21T11:27:53.150Z,4.10
2019-04-21T11:28:53.090Z,4.20
2019-04-21T11:29:53.626Z,4.60
2019-04-21T11:30:54.649Z,4.50
2019-04-21T11:31:54.755Z,4.50
2019-04-21T11:32:55.166Z,4.40
2019-04-21T11:33:55.258Z,4.30
2019-04-21T11:34:54.899Z,4.30
2019-04-21T11:35:55.165Z,4.20
2019-04-21T11:36:54.435Z,4.40
2019-04-21T11:38:04.614Z,4.80
2019-04-21T11:39:08.381Z,4.40
2019-04-21T11:39:59.974Z,4.50
2019-04-21T11:40:55.927Z,4.70
2019-04-21T11:41:55.126Z,4.10
2019-04-21T11:42:55.599Z,4.10
2019-04-21T11:43:55.437Z,4.10
2019-04-21T11:44:55.595Z,3.80
2019-04-21T11:45:55.751Z,4.30
2019-04-21T11:46:56.389Z,4.40
2019-04-21T11:47:56.443Z,4.40
2019-04-21T11:48:56.253Z,4.40
2019-04-21T11:49:57.050Z,4.40
2019-04-21T11:50:57.304Z,4.00
2019-04-21T11:51:56.692Z,4.60
2019-04-21T11:52:56.937Z,4.50
2019-04-21T11:53:57.034Z,4.20
2019-04-21T11:54:58.457Z,4.30
2019-04-21T11:55:58.609Z,4.30
2019-04-21T11:56:58.925Z,4.10
2019-04-21T11:57:58.312Z,4.20
2019-04-21T11:58:57.918Z,4.60
2019-04-21T11:59:57.950Z,4.90
2019-04-21T12:00:58.107Z,4.20
2019-04-21T12:01:59.354Z,4.90
2019-04-21T12:02:59.513Z,4.80
2019-04-21T12:03:59.885Z,4.70
2019-04-21T12:04:59.219Z,4.50
2019-04-21T12:05:59.564Z,4.60
2019-04-21T12:06:59.852Z,4.30
2019-04-21T12:08:00.187Z,4.60
2019-04-21T12:09:01.594Z,4.60
2019-04-21T12:09:59.724Z,4.70
2019-04-21T12:10:59.832Z,4.70
2019-04-21T12:12:01.130Z,4.20
2019-04-21T12:13:01.290Z,4.50
2019-04-21T12:14:00.427Z,4.70
2019-04-21T12:15:00.332Z,4.20
2019-04-21T12:16:00.979Z,4.40
2019-04-21T12:17:01.117Z,4.40
2019-04-21T12:18:01.760Z,4.40
2019-04-21T12:19:01.030Z,4.30
2019-04-21T12:20:01.117Z,4.60
2019-04-21T12:21:01.380Z,4.40
2019-04-21T12:22:11.335Z,4.20
2019-04-21T12:23:02.468Z,4.80
2019-04-21T12:24:02.711Z,4.80
2019-04-21T12:25:03.033Z,4.40
2019-04-21T12:26:03.111Z,4.40
2019-04-21T12:27:02.339Z,4.40
2019-04-21T12:28:03.597Z,4.50
2019-04-21T12:29:03.829Z,4.40
2019-04-21T12:30:03.805Z,4.30
2019-04-21T12:31:03.319Z,4.20
2019-04-21T12:32:03.514Z,4.50
2019-04-21T12:33:04.232Z,4.30
2019-04-21T12:34:03.637Z,4.30
2019-04-21T12:35:03.878Z,4.50
2019-04-21T12:36:03.954Z,4.30
2019-04-21T12:37:04.625Z,4.30
2019-04-21T12:38:04.747Z,4.70
2019-04-21T12:39:06.939Z,4.70
2019-04-21T12:40:04.280Z,4.50
2019-04-21T12:41:04.706Z,4.60
2019-04-21T12:42:04.769Z,5.00
2019-04-21T12:43:04.748Z,4.80
2019-04-21T12:44:04.909Z,4.60
2019-04-21T12:45:05.631Z,4.40
2019-04-21T12:46:05.227Z,4.20
2019-04-21T12:47:05.821Z,4.00
2019-04-21T12:48:06.117Z,4.00
2019-04-21T12:49:05.703Z,4.10
2019-04-21T12:50:06.759Z,4.40
2019-04-21T12:51:06.194Z,4.20
2019-04-21T12:52:06.176Z,4.10
2019-04-21T12:53:07.451Z,4.20
2019-04-21T12:54:07.847Z,4.10
2019-04-21T12:55:06.666Z,4.50
2019-04-21T12:56:07.449Z,4.60
2019-04-21T12:57:07.655Z,4.40
2019-04-21T12:58:07.676Z,4.10
2019-04-21T12:59:08.000Z,3.60
2019-04-21T13:00:08.913Z,3.80
2019-04-21T13:01:07.601Z,3.80
2019-04-21T13:02:07.759Z,4.00
2019-04-21T13:03:07.918Z,3.70
2019-04-21T13:04:08.182Z,3.80
2019-04-21T13:05:09.430Z,3.90
2019-04-21T13:06:09.769Z,3.60
2019-04-21T13:07:09.716Z,4.70
2019-04-21T13:08:09.191Z,3.70
2019-04-21T13:09:11.153Z,3.90
2019-04-21T13:10:10.435Z,4.40
2019-04-21T13:11:09.679Z,4.10
2019-04-21T13:12:09.360Z,3.80
2019-04-21T13:13:10.073Z,4.30
2019-04-21T13:14:09.675Z,3.70
2019-04-21T13:15:10.834Z,3.90
2019-04-21T13:16:09.994Z,4.00
2019-04-21T13:17:10.153Z,4.00
2019-04-21T13:18:10.315Z,4.30
2019-04-21T13:19:11.486Z,5.00
2019-04-21T13:20:11.603Z,4.20
2019-04-21T13:21:11.895Z,4.40
2019-04-21T13:22:12.108Z,3.90
2019-04-21T13:23:12.190Z,4.00
2019-04-21T13:24:11.632Z,4.40
2019-04-21T13:25:11.906Z,3.90
2019-04-21T13:26:12.950Z,4.00
2019-04-21T13:27:12.783Z,4.00
2019-04-21T13:28:12.508Z,4.20
2019-04-21T13:29:12.292Z,4.30
2019-04-21T13:30:12.608Z,4.20
2019-04-21T13:31:12.385Z,4.50
2019-04-21T13:32:12.681Z,4.20
2019-04-21T13:33:13.378Z,3.90
2019-04-21T13:34:13.799Z,4.30
2019-04-21T13:35:13.039Z,4.30
2019-04-21T13:36:13.892Z,4.60
2019-04-21T13:37:13.342Z,4.10
2019-04-21T13:38:25.261Z,4.00
2019-04-21T13:39:45.835Z,4.30
2019-04-21T13:40:34.187Z,4.20
2019-04-21T13:41:30.815Z,4.50
2019-04-21T13:42:23.880Z,3.90
2019-04-21T13:43:14.967Z,4.30
2019-04-21T13:44:15.643Z,4.50
2019-04-21T13:45:16.158Z,4.10
2019-04-21T13:46:15.465Z,4.30
2019-04-21T13:47:14.952Z,4.00
2019-04-21T13:48:16.657Z,4.20
2019-04-21T13:49:15.281Z,4.00
2019-04-21T13:50:15.437Z,4.50
2019-04-21T13:51:15.599Z,4.30
2019-04-21T13:52:15.758Z,4.40
2019-04-21T13:53:16.683Z,4.10
2019-04-21T13:54:16.082Z,4.30
2019-04-21T13:55:16.241Z,4.10
2019-04-21T13:56:16.415Z,4.50
2019-04-21T13:57:16.807Z,4.60
2019-04-21T13:58:16.875Z,4.40
2019-04-21T13:59:18.183Z,4.50
2019-04-21T14:00:17.317Z,4.20
2019-04-21T14:01:18.062Z,4.80
2019-04-21T14:02:18.514Z,4.60
2019-04-21T14:03:20.941Z,3.90
2019-04-21T14:04:17.851Z,4.50
2019-04-21T14:05:18.129Z,4.20
2019-04-21T14:06:18.439Z,4.30
2019-04-21T14:07:18.455Z,4.70
2019-04-21T14:08:18.887Z,4.00
2019-04-21T14:09:19.849Z,4.20
2019-04-21T14:10:19.853Z,4.20
2019-04-21T14:11:19.771Z,4.20
2019-04-21T14:12:19.317Z,4.00
2019-04-21T14:13:20.362Z,4.30
2019-04-21T14:14:20.595Z,3.80
2019-04-21T14:15:20.243Z,3.70
2019-04-21T14:16:20.275Z,4.10
2019-04-21T14:17:21.323Z,4.30
2019-04-21T14:18:20.684Z,4.30
2019-04-21T14:19:21.363Z,4.10
2019-04-21T14:20:21.490Z,4.50
2019-04-21T14:21:21.107Z,5.00
2019-04-21T14:22:20.639Z,5.10
2019-04-21T14:23:28.590Z,4.90
2019-04-21T14:24:20.969Z,4.60
2019-04-21T14:25:21.608Z,4.40